Time;durP1;ratioP1;P1;durP2;ratioP2;P2;SDS_P1;SDS_P2;PMS_P1;PMS_P2;Temp;Humidity;BMP_temperature;BMP_pressure;BME280_temperature;BME280_humidity;BME280_pressure;Samples;Min_cycle;Max_cycle;Signal;HPM_P1;HPM_P2
2022/06/25 00:01:12;;;;;;;1.38;0.73;;;18.80;71.10;;;;;;5003158;28;20033;-78
2022/06/25 00:03:38;;;;;;;3.10;0.70;;;18.80;71.20;;;;;;5030831;28;20103;-79
2022/06/25 00:06:04;;;;;;;3.85;0.85;;;18.80;71.30;;;;;;5000633;28;20045;-78
2022/06/25 00:08:29;;;;;;;1.75;0.90;;;18.80;71.20;;;;;;4996022;28;20537;-78
2022/06/25 00:10:55;;;;;;;3.15;0.80;;;18.80;71.40;;;;;;4981559;28;21558;-79
2022/06/25 00:13:20;;;;;;;2.00;0.70;;;18.80;71.40;;;;;;5014538;28;20116;-78
2022/06/25 00:15:46;;;;;;;2.97;0.80;;;18.80;71.40;;;;;;4984367;28;20384;-79
2022/06/25 00:18:12;;;;;;;1.85;1.10;;;18.80;71.40;;;;;;4979685;28;20057;-78
2022/06/25 00:20:37;;;;;;;2.35;0.90;;;18.80;71.40;;;;;;4978009;28;20365;-78
2022/06/25 00:23:03;;;;;;;0.90;0.80;;;18.80;71.30;;;;;;4982690;28;20038;-78
2022/06/25 00:25:29;;;;;;;1.38;0.70;;;18.70;71.40;;;;;;5023500;28;20045;-78
2022/06/25 00:27:54;;;;;;;1.75;0.95;;;18.70;71.60;;;;;;4993824;28;20120;-78
2022/06/25 00:30:20;;;;;;;3.00;1.10;;;18.70;71.60;;;;;;5014623;28;20029;-78
2022/06/25 00:32:45;;;;;;;0.90;0.90;;;18.70;71.70;;;;;;5007810;28;20034;-78
2022/06/25 00:35:11;;;;;;;1.60;0.90;;;18.60;71.90;;;;;;4991671;28;20033;-78
2022/06/25 00:37:36;;;;;;;0.98;0.88;;;18.60;72.10;;;;;;4993807;28;20442;-78
2022/06/25 00:40:03;;;;;;;1.25;1.00;;;18.50;72.00;;;;;;4971955;28;20136;-79
2022/06/25 00:42:28;;;;;;;0.80;0.80;;;18.50;72.10;;;;;;5013359;28;20397;-79
2022/06/25 00:44:55;;;;;;;3.03;0.90;;;18.60;72.30;;;;;;5004054;28;20038;-79
2022/06/25 00:47:21;;;;;;;3.28;0.90;;;18.50;72.20;;;;;;5003608;28;20025;-79
2022/06/25 00:49:46;;;;;;;1.10;0.90;;;18.60;72.30;;;;;;4991680;28;20032;-79
2022/06/25 00:52:18;;;;;;;2.10;0.90;;;18.50;72.30;;;;;;4988679;28;20501;-78
2022/06/25 00:54:53;;;;;;;3.00;1.02;;;18.50;72.50;;;;;;4998620;28;20352;-78
2022/06/25 00:57:26;;;;;;;1.83;0.90;;;18.50;72.70;;;;;;4994496;28;20033;-78
2022/06/25 00:59:57;;;;;;;3.28;0.93;;;18.50;72.80;;;;;;5006103;28;20026;-78
2022/06/25 01:02:22;;;;;;;2.43;1.30;;;18.50;72.70;;;;;;4986848;28;20161;-78
2022/06/25 01:04:49;;;;;;;1.35;0.75;;;18.30;72.80;;;;;;4992907;28;20110;-78
2022/06/25 01:07:14;;;;;;;1.40;1.00;;;18.30;73.00;;;;;;4984887;28;20053;-78
2022/06/25 01:09:40;;;;;;;3.35;1.00;;;18.20;73.20;;;;;;5003573;28;20049;-78
2022/06/25 01:12:06;;;;;;;4.88;0.93;;;18.20;73.50;;;;;;5017163;28;20038;-78
2022/06/25 01:14:32;;;;;;;2.10;0.80;;;18.20;73.50;;;;;;4996645;28;20536;-78
2022/06/25 01:16:58;;;;;;;1.55;1.00;;;18.20;73.70;;;;;;5007670;28;20038;-78
2022/06/25 01:19:23;;;;;;;1.50;0.77;;;18.20;73.70;;;;;;4992796;28;20048;-78
2022/06/25 01:21:49;;;;;;;2.85;1.10;;;18.10;73.60;;;;;;4999187;28;20105;-78
2022/06/25 01:24:14;;;;;;;1.92;0.90;;;18.20;73.60;;;;;;4998548;28;20034;-78
2022/06/25 01:26:40;;;;;;;4.85;0.80;;;18.20;73.60;;;;;;5001412;28;20329;-78
2022/06/25 01:29:06;;;;;;;2.30;0.90;;;18.20;73.60;;;;;;4983157;28;20048;-78
2022/06/25 01:31:31;;;;;;;1.95;0.73;;;18.10;73.50;;;;;;5015291;28;20045;-78
2022/06/25 01:33:57;;;;;;;3.70;1.00;;;18.20;73.40;;;;;;4997245;28;20042;-78
2022/06/25 01:36:23;;;;;;;1.10;0.90;;;18.10;73.30;;;;;;4982238;28;20056;-78
2022/06/25 01:38:49;;;;;;;4.15;1.05;;;18.20;73.30;;;;;;5001828;28;20178;-78
2022/06/25 01:41:14;;;;;;;2.20;0.77;;;18.20;73.10;;;;;;4994633;28;20072;-78
2022/06/25 01:43:40;;;;;;;1.30;1.20;;;18.20;73.20;;;;;;5013706;28;20092;-78
2022/06/25 01:46:06;;;;;;;1.88;1.10;;;18.20;73.10;;;;;;5011625;28;20072;-78
2022/06/25 01:48:31;;;;;;;2.15;0.90;;;18.10;73.10;;;;;;5017225;28;20136;-78
2022/06/25 01:50:57;;;;;;;2.55;1.00;;;18.10;73.30;;;;;;4981102;28;20033;-78
2022/06/25 01:53:22;;;;;;;2.03;0.93;;;18.10;73.50;;;;;;4990882;28;20038;-79
2022/06/25 01:55:48;;;;;;;4.78;1.13;;;18.10;73.60;;;;;;5000458;28;20029;-78
2022/06/25 01:58:13;;;;;;;2.55;0.95;;;18.00;73.80;;;;;;5014997;28;20041;-78
2022/06/25 02:00:39;;;;;;;3.05;0.85;;;18.00;73.80;;;;;;5006088;28;20548;-79
2022/06/25 02:03:05;;;;;;;1.25;0.90;;;18.00;73.90;;;;;;4984865;28;20370;-78
2022/06/25 02:08:15;;;;;;;3.10;0.90;;;18.00;73.70;;;;;;4997252;28;20103;-78
2022/06/25 02:10:41;;;;;;;3.15;0.88;;;17.90;73.50;;;;;;4974209;28;20038;-78
2022/06/25 02:13:07;;;;;;;1.52;0.80;;;17.90;73.50;;;;;;4972756;28;20038;-78
2022/06/25 02:15:32;;;;;;;2.33;0.80;;;17.90;74.30;;;;;;4997897;28;20037;-79
2022/06/25 02:17:59;;;;;;;3.75;1.08;;;17.90;73.50;;;;;;5001144;28;20378;-79
2022/06/25 02:20:24;;;;;;;1.60;0.75;;;17.90;73.50;;;;;;4982136;28;20033;-78
2022/06/25 02:22:50;;;;;;;2.42;0.85;;;17.90;73.70;;;;;;4985088;28;20037;-78
2022/06/25 02:25:15;;;;;;;4.82;0.80;;;17.80;73.80;;;;;;5001276;28;20038;-79
2022/06/25 02:27:41;;;;;;;3.08;0.98;;;17.70;73.90;;;;;;5001501;28;20037;-78
2022/06/25 02:30:07;;;;;;;1.27;0.85;;;17.70;73.80;;;;;;4992881;28;20038;-79
2022/06/25 02:32:33;;;;;;;2.47;1.10;;;17.70;73.80;;;;;;5000999;28;20033;-79
2022/06/25 02:34:59;;;;;;;1.67;0.80;;;17.70;73.90;;;;;;4988158;28;20041;-79
2022/06/25 02:37:24;;;;;;;1.23;1.00;;;17.60;74.10;;;;;;4998548;28;20124;-78
2022/06/25 02:39:50;;;;;;;4.13;1.23;;;17.60;74.80;;;;;;5009761;28;20060;-79
2022/06/25 02:42:15;;;;;;;2.78;0.90;;;17.60;74.30;;;;;;4995422;28;20158;-79
2022/06/25 02:44:41;;;;;;;2.53;0.93;;;17.60;74.30;;;;;;5015977;28;20094;-79
2022/06/25 02:47:06;;;;;;;2.42;0.80;;;17.60;74.30;;;;;;5014229;28;20038;-79
2022/06/25 02:49:32;;;;;;;4.45;0.98;;;17.60;74.40;;;;;;4982018;28;20057;-79
2022/06/25 02:51:57;;;;;;;1.17;1.00;;;17.50;74.20;;;;;;4991763;28;20515;-78
2022/06/25 02:54:23;;;;;;;0.98;0.85;;;17.50;74.20;;;;;;4989665;28;20563;-79
2022/06/25 02:59:33;;;;;;;1.98;1.20;;;17.40;74.20;;;;;;4993912;28;20061;-79
2022/06/25 03:01:58;;;;;;;1.50;1.00;;;17.40;74.40;;;;;;5006079;28;20101;-79
2022/06/25 03:04:27;;;;;;;4.13;1.00;;;17.40;74.50;;;;;;5005736;28;20033;-78
2022/06/25 03:06:52;;;;;;;2.60;1.05;;;17.30;74.40;;;;;;4988365;28;20042;-79
2022/06/25 03:09:18;;;;;;;3.03;0.82;;;17.30;74.60;;;;;;4996374;28;20033;-79
2022/06/25 03:11:44;;;;;;;1.58;0.88;;;17.30;74.70;;;;;;4982206;28;20095;-79
2022/06/25 03:14:09;;;;;;;3.50;1.10;;;17.30;74.70;;;;;;5018748;28;20362;-79
2022/06/25 03:16:35;;;;;;;2.60;0.98;;;17.20;74.70;;;;;;5003021;28;20026;-79
2022/06/25 03:19:02;;;;;;;2.03;0.93;;;17.20;74.80;;;;;;5008703;28;20472;-79
2022/06/25 03:21:27;;;;;;;3.80;0.98;;;17.20;75.00;;;;;;5006290;28;20394;-79
2022/06/25 03:23:53;;;;;;;4.20;0.82;;;17.10;74.90;;;;;;5007069;28;20034;-78
2022/06/25 03:26:18;;;;;;;5.85;1.23;;;17.10;74.90;;;;;;5004627;28;20034;-78
2022/06/25 03:28:44;;;;;;;1.92;0.80;;;17.10;74.90;;;;;;4986314;28;20077;-79
2022/06/25 03:31:10;;;;;;;1.55;1.13;;;17.10;75.00;;;;;;4987239;28;20130;-79
2022/06/25 03:33:36;;;;;;;1.42;0.75;;;17.10;75.00;;;;;;5002993;28;20042;-79
2022/06/25 03:36:01;;;;;;;5.05;1.02;;;17.00;75.00;;;;;;4984099;28;20100;-78
2022/06/25 03:38:27;;;;;;;1.33;1.02;;;17.00;75.00;;;;;;5001301;28;20041;-78
2022/06/25 03:43:36;;;;;;;2.78;0.90;;;16.90;75.20;;;;;;5019280;28;20527;-78
2022/06/25 03:46:02;;;;;;;4.07;1.05;;;16.90;75.00;;;;;;5017103;28;20050;-79
2022/06/25 03:48:28;;;;;;;3.50;0.90;;;17.00;75.20;;;;;;5018640;28;20218;-79
2022/06/25 03:50:53;;;;;;;3.45;1.00;;;16.90;75.00;;;;;;5007443;28;20045;-79
2022/06/25 03:53:19;;;;;;;2.67;0.90;;;17.00;75.20;;;;;;5003191;28;20046;-79
2022/06/25 03:55:44;;;;;;;3.33;0.95;;;17.00;75.20;;;;;;5008980;28;20114;-80
2022/06/25 03:58:10;;;;;;;3.25;1.02;;;17.00;75.20;;;;;;5011019;28;20144;-78
2022/06/25 04:00:35;;;;;;;2.55;1.08;;;17.00;75.20;;;;;;4996632;28;20038;-79
2022/06/25 04:03:01;;;;;;;2.28;0.80;;;17.00;75.30;;;;;;4998107;28;20029;-79
2022/06/25 04:05:27;;;;;;;0.82;0.82;;;17.00;75.60;;;;;;4989708;28;20052;-79
2022/06/25 04:07:52;;;;;;;3.70;1.00;;;16.90;75.50;;;;;;4998330;28;20572;-79
2022/06/25 04:10:18;;;;;;;3.80;1.10;;;16.90;75.50;;;;;;5002328;28;20045;-79
2022/06/25 04:12:43;;;;;;;2.22;1.00;;;17.00;75.60;;;;;;4994787;28;20434;-79
2022/06/25 04:15:10;;;;;;;2.33;1.27;;;17.00;75.50;;;;;;5016975;28;20543;-79
2022/06/25 04:17:35;;;;;;;2.35;0.90;;;16.90;75.50;;;;;;4999539;28;20065;-79
2022/06/25 04:20:02;;;;;;;6.03;1.13;;;16.90;75.60;;;;;;5010547;28;20098;-79
2022/06/25 04:22:27;;;;;;;2.13;1.25;;;16.90;75.80;;;;;;4999409;28;20103;-79
2022/06/25 04:24:53;;;;;;;2.38;1.10;;;16.90;75.90;;;;;;4997228;28;20065;-79
2022/06/25 04:30:03;;;;;;;2.88;1.17;;;16.90;76.10;;;;;;4996697;28;20299;-79
2022/06/25 04:32:28;;;;;;;2.33;1.20;;;16.90;76.30;;;;;;5029006;28;20512;-79
2022/06/25 04:34:54;;;;;;;3.08;1.13;;;16.90;76.20;;;;;;4994819;28;20144;-79
2022/06/25 04:37:19;;;;;;;4.93;1.30;;;16.90;76.30;;;;;;5001315;28;20033;-79
2022/06/25 04:39:45;;;;;;;1.60;0.93;;;16.90;76.50;;;;;;4997945;28;20022;-79
2022/06/25 04:42:10;;;;;;;3.63;1.50;;;16.90;76.70;;;;;;5005270;28;20041;-80
2022/06/25 04:44:36;;;;;;;2.10;1.15;;;17.00;76.80;;;;;;5027703;28;20033;-79
2022/06/25 04:47:01;;;;;;;6.50;1.30;;;17.00;76.90;;;;;;5005747;28;20046;-79
2022/06/25 04:49:27;;;;;;;2.10;1.40;;;17.00;77.00;;;;;;5000833;28;20037;-79
2022/06/25 04:51:52;;;;;;;1.55;1.45;;;17.00;77.20;;;;;;4998904;28;20045;-79
2022/06/25 04:54:18;;;;;;;1.65;1.30;;;17.10;77.60;;;;;;4998579;28;20030;-79
2022/06/25 04:56:44;;;;;;;3.45;1.40;;;17.10;77.60;;;;;;5010688;28;20058;-79
2022/06/25 04:59:09;;;;;;;3.60;1.63;;;17.20;77.70;;;;;;5025736;28;20064;-79
2022/06/25 05:01:35;;;;;;;1.83;1.13;;;17.20;77.60;;;;;;4996884;28;20516;-79
2022/06/25 05:04:00;;;;;;;3.88;1.23;;;17.20;77.60;;;;;;5010411;28;20432;-79
2022/06/25 05:06:26;;;;;;;2.03;1.17;;;17.30;77.60;;;;;;4997032;28;20106;-79
2022/06/25 05:08:51;;;;;;;4.68;1.30;;;17.30;77.60;;;;;;5001757;28;20041;-79
2022/06/25 05:11:17;;;;;;;3.72;1.75;;;17.40;77.40;;;;;;4986592;28;20046;-79
2022/06/25 05:13:43;;;;;;;1.80;1.00;;;17.40;77.40;;;;;;4970666;28;20140;-79
2022/06/25 05:16:08;;;;;;;2.00;1.30;;;17.40;77.50;;;;;;5011902;28;20122;-79
2022/06/25 05:18:34;;;;;;;2.92;1.27;;;17.50;77.40;;;;;;5016235;28;20524;-79
2022/06/25 05:21:00;;;;;;;1.70;1.40;;;17.50;77.20;;;;;;5010863;28;20441;-80
2022/06/25 05:23:26;;;;;;;1.52;1.23;;;17.50;77.20;;;;;;5000629;28;20037;-79
2022/06/25 05:25:52;;;;;;;1.92;1.33;;;17.50;77.10;;;;;;5015991;28;20033;-79
2022/06/25 05:28:17;;;;;;;3.40;1.13;;;17.60;76.90;;;;;;5002377;28;20041;-79
2022/06/25 05:30:43;;;;;;;2.88;1.50;;;17.60;76.70;;;;;;4991482;28;20421;-79
2022/06/25 05:33:08;;;;;;;1.33;1.10;;;17.70;76.70;;;;;;5005985;28;20052;-79
2022/06/25 05:35:34;;;;;;;2.85;1.80;;;17.60;76.70;;;;;;5004366;28;20034;-79
2022/06/25 05:37:59;;;;;;;2.20;1.65;;;17.70;76.80;;;;;;4994404;28;20030;-79
2022/06/25 05:40:25;;;;;;;4.10;1.83;;;17.70;76.90;;;;;;4987714;28;20121;-79
2022/06/25 05:42:50;;;;;;;4.82;2.17;;;17.80;77.20;;;;;;4990104;28;20040;-79
2022/06/25 05:45:16;;;;;;;3.35;2.05;;;17.80;77.30;;;;;;5000967;28;20026;-79
2022/06/25 05:47:41;;;;;;;4.63;1.80;;;17.90;77.50;;;;;;5007796;28;20502;-79
2022/06/25 05:50:07;;;;;;;3.50;2.00;;;17.90;77.40;;;;;;5013764;28;20425;-79
2022/06/25 05:52:33;;;;;;;3.83;1.80;;;17.90;77.50;;;;;;4981379;28;20048;-79
2022/06/25 05:54:58;;;;;;;1.80;1.70;;;17.90;77.90;;;;;;5005838;28;20416;-79
2022/06/25 05:57:24;;;;;;;2.58;1.60;;;18.00;77.80;;;;;;5010099;28;20527;-78
2022/06/25 05:59:49;;;;;;;3.50;1.70;;;18.00;78.10;;;;;;5013817;28;20029;-78
2022/06/25 06:02:16;;;;;;;2.45;1.90;;;18.00;78.00;;;;;;4998206;28;20049;-78
2022/06/25 06:04:42;;;;;;;2.80;2.38;;;18.00;78.00;;;;;;4986208;28;20485;-76
2022/06/25 06:07:07;;;;;;;2.13;1.90;;;18.10;78.10;;;;;;5017494;28;20060;-76
2022/06/25 06:09:33;;;;;;;1.88;1.75;;;18.20;78.40;;;;;;5016704;28;20041;-77
2022/06/25 06:11:58;;;;;;;1.73;1.63;;;18.20;78.10;;;;;;5011859;28;20041;-76
2022/06/25 06:14:24;;;;;;;4.63;2.20;;;18.30;78.30;;;;;;4981062;28;20034;-77
2022/06/25 06:16:50;;;;;;;3.75;1.92;;;18.40;78.20;;;;;;4977130;28;20124;-77
2022/06/25 06:19:15;;;;;;;1.63;1.52;;;18.40;78.40;;;;;;4995349;28;20208;-78
2022/06/25 06:21:41;;;;;;;3.13;1.40;;;18.50;78.30;;;;;;5031993;28;20034;-78
2022/06/25 06:24:07;;;;;;;3.35;1.80;;;18.60;78.10;;;;;;5014896;28;20029;-77
2022/06/25 06:26:33;;;;;;;1.80;1.70;;;18.60;78.00;;;;;;5012144;28;20087;-78
2022/06/25 06:28:58;;;;;;;3.78;1.65;;;18.70;78.20;;;;;;4981107;28;20124;-77
2022/06/25 06:31:24;;;;;;;2.25;1.92;;;18.80;78.00;;;;;;4999813;28;20378;-76
2022/06/25 06:33:50;;;;;;;2.40;1.77;;;18.90;78.00;;;;;;5033403;28;20473;-77
2022/06/25 06:36:15;;;;;;;2.08;1.88;;;18.90;77.90;;;;;;5020978;28;20136;-77
2022/06/25 06:38:41;;;;;;;3.00;2.15;;;19.10;77.90;;;;;;5014583;28;20038;-77
2022/06/25 06:41:06;;;;;;;2.92;1.60;;;19.20;77.90;;;;;;5002482;28;20065;-77
2022/06/25 06:43:32;;;;;;;2.10;2.00;;;19.20;77.60;;;;;;4971739;28;21374;-76
2022/06/25 06:45:57;;;;;;;2.45;1.60;;;19.40;77.70;;;;;;5003674;28;20053;-77
2022/06/25 06:48:23;;;;;;;2.03;1.80;;;19.40;77.20;;;;;;4999744;28;20060;-78
2022/06/25 06:50:48;;;;;;;2.22;1.60;;;19.50;76.90;;;;;;4990431;28;20192;-77
2022/06/25 06:53:14;;;;;;;2.97;2.28;;;19.70;76.80;;;;;;4993005;28;20057;-78
2022/06/25 06:55:40;;;;;;;4.25;1.63;;;19.70;76.40;;;;;;4960756;28;20482;-77
2022/06/25 06:58:05;;;;;;;3.10;2.08;;;19.80;76.20;;;;;;5003583;28;20120;-78
2022/06/25 07:00:31;;;;;;;2.55;1.80;;;19.90;75.80;;;;;;4995296;28;20473;-77
2022/06/25 07:02:56;;;;;;;2.22;2.00;;;19.90;75.60;;;;;;4983769;28;20109;-78
2022/06/25 07:05:22;;;;;;;2.35;2.05;;;19.90;75.30;;;;;;4972761;28;20048;-76
2022/06/25 07:07:47;;;;;;;1.52;1.42;;;20.00;75.20;;;;;;5007732;28;20379;-77
2022/06/25 07:10:13;;;;;;;2.65;1.77;;;20.10;75.00;;;;;;5013143;28;20048;-78
2022/06/25 07:12:39;;;;;;;2.13;1.95;;;20.10;74.60;;;;;;5007850;28;20045;-78
2022/06/25 07:15:05;;;;;;;3.15;2.08;;;20.30;74.50;;;;;;4984647;28;20026;-77
2022/06/25 07:17:31;;;;;;;2.33;1.90;;;20.40;74.30;;;;;;5001699;28;20026;-77
2022/06/25 07:19:56;;;;;;;2.75;2.45;;;20.60;74.00;;;;;;5002469;28;20033;-78
2022/06/25 07:22:22;;;;;;;5.32;2.15;;;20.70;73.50;;;;;;4975001;28;20061;-78
2022/06/25 07:24:47;;;;;;;2.63;2.20;;;20.80;73.20;;;;;;4995151;28;20397;-77
2022/06/25 07:27:13;;;;;;;2.33;1.65;;;20.90;72.90;;;;;;4992417;28;20030;-78
2022/06/25 07:29:39;;;;;;;3.10;2.20;;;20.90;72.70;;;;;;5002119;28;20030;-78
2022/06/25 07:32:04;;;;;;;4.13;1.88;;;21.00;72.50;;;;;;5001378;28;20038;-78
2022/06/25 07:34:30;;;;;;;2.20;2.00;;;21.10;72.20;;;;;;5020370;28;20038;-78
2022/06/25 07:36:55;;;;;;;2.47;2.00;;;21.30;72.00;;;;;;4998396;28;20033;-80
2022/06/25 07:39:21;;;;;;;2.88;1.83;;;21.40;71.80;;;;;;5006346;28;20041;-78
2022/06/25 07:41:46;;;;;;;2.63;2.22;;;21.50;71.40;;;;;;5020004;28;20057;-78
2022/06/25 07:44:12;;;;;;;5.15;2.60;;;21.70;71.10;;;;;;5008605;28;20641;-78
2022/06/25 07:46:38;;;;;;;1.85;1.75;;;21.80;70.90;;;;;;5009388;28;20048;-80
2022/06/25 07:49:04;;;;;;;2.90;2.10;;;22.00;70.60;;;;;;5009475;28;20034;-78
2022/06/25 07:54:14;;;;;;;2.92;1.90;;;22.30;69.70;;;;;;5007565;28;20121;-78
2022/06/25 07:56:39;;;;;;;2.15;1.95;;;22.50;69.30;;;;;;4983681;28;20286;-78
2022/06/25 07:59:05;;;;;;;2.42;1.90;;;22.60;68.90;;;;;;5002985;28;20049;-79
2022/06/25 08:01:30;;;;;;;2.25;1.98;;;22.70;68.50;;;;;;5000091;28;20037;-78
2022/06/25 08:03:56;;;;;;;3.60;2.17;;;22.90;68.10;;;;;;5019112;28;20057;-79
2022/06/25 08:06:22;;;;;;;3.15;2.13;;;23.00;67.90;;;;;;5009834;28;20410;-78
2022/06/25 08:08:47;;;;;;;3.65;2.08;;;23.10;67.50;;;;;;4985344;28;20521;-78
2022/06/25 08:11:13;;;;;;;2.58;2.00;;;23.20;67.10;;;;;;4984936;28;20060;-77
2022/06/25 08:13:38;;;;;;;7.35;1.95;;;23.40;66.80;;;;;;5000518;28;20469;-78
2022/06/25 08:16:05;;;;;;;2.03;1.92;;;23.60;66.50;;;;;;5007787;28;20101;-79
2022/06/25 08:18:30;;;;;;;3.08;1.80;;;23.70;66.00;;;;;;4998062;28;20037;-77
2022/06/25 08:20:56;;;;;;;2.83;1.92;;;23.80;65.60;;;;;;4967541;28;20050;-79
2022/06/25 08:23:21;;;;;;;2.58;1.85;;;24.00;65.30;;;;;;4994902;28;20033;-79
2022/06/25 08:25:47;;;;;;;7.00;2.25;;;24.10;65.00;;;;;;5002792;28;20033;-78
2022/06/25 08:28:12;;;;;;;4.35;1.85;;;24.20;64.70;;;;;;5016092;28;20494;-79
2022/06/25 08:30:41;;;;;;;1.70;1.60;;;24.40;64.30;;;;;;5033518;28;20052;-79
2022/06/25 08:33:07;;;;;;;2.17;1.60;;;24.50;64.00;;;;;;5008881;28;20034;-79
2022/06/25 08:35:32;;;;;;;2.90;1.58;;;24.70;63.50;;;;;;4999678;28;20042;-78
2022/06/25 08:37:58;;;;;;;1.80;1.70;;;24.90;63.00;;;;;;4970056;28;20041;-79
2022/06/25 08:40:24;;;;;;;2.88;1.70;;;25.10;62.70;;;;;;5013748;28;20034;-78
2022/06/25 08:42:49;;;;;;;2.25;1.70;;;25.30;62.30;;;;;;4996032;28;20034;-79
2022/06/25 08:45:17;;;;;;;2.22;1.50;;;25.40;61.80;;;;;;4989489;28;20041;-80
2022/06/25 08:47:50;;;;;;;3.63;1.92;;;25.60;61.30;;;;;;4989937;28;20064;-77
2022/06/25 08:50:16;;;;;;;3.75;1.58;;;25.80;60.60;;;;;;5004443;28;21234;-80
2022/06/25 08:52:53;;;;;;;1.88;1.50;;;26.00;60.30;;;;;;5006541;28;20037;-80
2022/06/25 08:55:36;;;;;;;2.67;1.52;;;26.30;59.50;;;;;;5013338;28;20029;-79
2022/06/25 08:58:01;;;;;;;1.63;1.42;;;26.50;58.50;;;;;;5000699;28;20029;-80
2022/06/25 09:00:28;;;;;;;1.85;1.50;;;26.70;58.80;;;;;;4989759;28;20096;-78
2022/06/25 09:02:54;;;;;;;3.03;1.50;;;26.90;58.30;;;;;;5006981;28;20125;-81
2022/06/25 09:05:30;;;;;;;3.17;1.40;;;27.00;57.90;;;;;;5015263;28;20061;-79
2022/06/25 09:07:56;;;;;;;2.97;1.40;;;27.10;57.10;;;;;;4996204;28;20038;-78
2022/06/25 09:10:26;;;;;;;2.00;1.33;;;27.20;56.90;;;;;;4989366;28;20445;-80
2022/06/25 09:12:55;;;;;;;2.55;1.10;;;27.20;56.70;;;;;;4994030;28;20545;-79
2022/06/25 09:15:30;;;;;;;2.70;1.30;;;27.40;56.50;;;;;;4984707;28;20281;-79
2022/06/25 09:17:56;;;;;;;2.35;1.35;;;27.60;56.20;;;;;;4971895;28;20030;-79
2022/06/25 09:20:22;;;;;;;1.77;1.30;;;27.80;55.90;;;;;;4994391;28;20053;-80
2022/06/25 09:23:02;;;;;;;2.25;1.30;;;27.90;55.40;;;;;;4990324;28;20053;-78
2022/06/25 09:25:29;;;;;;;5.80;1.67;;;27.90;54.50;;;;;;4996739;28;20040;-80
2022/06/25 09:27:56;;;;;;;1.88;1.20;;;28.10;54.90;;;;;;5014485;28;20321;-78
2022/06/25 09:30:22;;;;;;;3.90;1.40;;;28.30;54.60;;;;;;4982029;28;20088;-80
2022/06/25 09:32:54;;;;;;;1.25;1.10;;;28.50;54.10;;;;;;4984049;28;20030;-78
2022/06/25 09:35:29;;;;;;;2.00;1.17;;;28.80;52.70;;;;;;5011696;28;20037;-78
2022/06/25 09:38:09;;;;;;;2.13;1.00;;;28.90;52.30;;;;;;5017442;28;20561;-78
2022/06/25 09:40:35;;;;;;;8.05;1.50;;;29.10;52.10;;;;;;4986753;28;20026;-79
2022/06/25 09:43:12;;;;;;;2.00;1.02;;;29.30;52.20;;;;;;4999966;28;20030;-80
2022/06/25 09:45:38;;;;;;;1.70;1.30;;;29.40;50.80;;;;;;4983548;28;20034;-79
2022/06/25 09:48:05;;;;;;;1.30;1.20;;;29.50;51.30;;;;;;5003713;28;20606;-81
2022/06/25 09:50:31;;;;;;;2.97;1.20;;;29.60;50.90;;;;;;4999646;28;20034;-80
2022/06/25 09:52:59;;;;;;;1.55;0.90;;;29.80;51.40;;;;;;5008366;28;20371;-79
2022/06/25 09:55:26;;;;;;;3.38;1.20;;;30.00;50.30;;;;;;5013805;28;20037;-78
2022/06/25 09:57:52;;;;;;;2.40;1.10;;;30.10;50.00;;;;;;5013078;28;20041;-80
2022/06/25 10:00:19;;;;;;;3.25;1.02;;;30.10;49.50;;;;;;4978336;28;20096;-79
2022/06/25 10:02:48;;;;;;;2.28;1.02;;;30.10;49.30;;;;;;4998969;28;20068;-79
2022/06/25 10:05:18;;;;;;;1.30;1.20;;;30.10;49.00;;;;;;5001196;28;20037;-80
2022/06/25 10:08:04;;;;;;;1.73;1.30;;;30.10;49.00;;;;;;4975748;28;20041;-78
2022/06/25 10:10:32;;;;;;;2.20;1.02;;;30.10;48.80;;;;;;5010193;28;20042;-79
2022/06/25 10:12:58;;;;;;;1.83;1.55;;;30.10;48.80;;;;;;5033291;28;20444;-79
2022/06/25 10:15:23;;;;;;;1.23;1.10;;;30.00;48.80;;;;;;4999376;28;20384;-79
2022/06/25 10:17:51;;;;;;;2.88;1.30;;;30.00;48.70;;;;;;5014589;28;20068;-77
2022/06/25 10:20:17;;;;;;;2.85;1.48;;;30.00;48.60;;;;;;4989750;28;20050;-78
2022/06/25 10:22:44;;;;;;;2.45;1.02;;;30.00;48.50;;;;;;5016297;28;20071;-78
2022/06/25 10:25:11;;;;;;;1.77;1.00;;;30.10;48.20;;;;;;4993041;28;20060;-79
2022/06/25 10:27:39;;;;;;;2.80;0.90;;;30.20;47.80;;;;;;4995993;28;20061;-79
2022/06/25 10:30:06;;;;;;;3.63;1.10;;;30.30;47.50;;;;;;5002526;28;20437;-80
2022/06/25 10:32:34;;;;;;;0.80;0.80;;;30.50;47.20;;;;;;4998589;28;20138;-78
2022/06/25 10:35:03;;;;;;;1.58;1.00;;;30.70;46.90;;;;;;4996072;28;20505;-79
2022/06/25 10:37:41;;;;;;;1.33;0.90;;;31.00;46.70;;;;;;5002480;28;20037;-78
2022/06/25 10:40:07;;;;;;;1.63;0.80;;;31.20;46.30;;;;;;5004309;28;20030;-80
2022/06/25 10:45:20;;;;;;;1.40;1.10;;;31.30;45.70;;;;;;4997467;28;21561;-79
2022/06/25 10:47:50;;;;;;;1.50;0.90;;;31.20;45.30;;;;;;5021023;28;20108;-79
2022/06/25 10:50:22;;;;;;;1.75;1.00;;;31.20;45.10;;;;;;4998187;28;20620;-79
2022/06/25 10:53:02;;;;;;;1.20;1.08;;;31.20;45.10;;;;;;5015067;28;20417;-80
2022/06/25 10:55:37;;;;;;;1.73;0.90;;;31.30;44.70;;;;;;4998925;28;20192;-80
2022/06/25 10:58:24;;;;;;;1.15;1.05;;;31.50;44.90;;;;;;5000253;28;20361;-78
2022/06/25 11:00:58;;;;;;;1.27;1.00;;;31.80;44.10;;;;;;4996318;28;20110;-79
2022/06/25 11:03:27;;;;;;;5.25;1.08;;;32.00;44.40;;;;;;4995290;28;20034;-80
2022/06/25 11:05:52;;;;;;;8.93;1.30;;;32.20;44.20;;;;;;5007563;28;20311;-81
2022/06/25 11:08:18;;;;;;;4.85;0.93;;;32.40;44.00;;;;;;4996174;28;20203;-81
2022/06/25 11:10:43;;;;;;;2.10;0.90;;;32.60;43.70;;;;;;4998220;28;20032;-81
2022/06/25 11:13:09;;;;;;;1.10;1.00;;;32.70;43.50;;;;;;5006459;28;20042;-81
2022/06/25 11:15:39;;;;;;;3.60;0.77;;;32.80;43.10;;;;;;5009673;28;20045;-79
2022/06/25 11:18:14;;;;;;;1.17;0.80;;;32.90;42.30;;;;;;5007667;28;20541;-80
2022/06/25 11:20:40;;;;;;;1.02;0.60;;;32.90;41.80;;;;;;5002300;28;20053;-80
2022/06/25 11:23:05;;;;;;;2.17;0.85;;;32.90;41.90;;;;;;4991879;28;20038;-79
2022/06/25 11:28:53;;;;;;;3.67;0.70;;;33.10;41.00;;;;;;5013798;28;20076;-80
2022/06/25 11:31:22;;;;;;;0.85;0.70;;;33.30;41.40;;;;;;5004116;28;20144;-81
2022/06/25 11:33:49;;;;;;;2.50;0.80;;;33.10;41.20;;;;;;5003822;28;20041;-81
2022/06/25 11:36:15;;;;;;;2.97;0.60;;;33.10;41.10;;;;;;5011271;28;20072;-79
2022/06/25 11:38:51;;;;;;;1.88;0.90;;;33.20;40.90;;;;;;5021210;28;21031;-79
2022/06/25 11:41:26;;;;;;;1.83;0.98;;;33.30;40.80;;;;;;5003795;28;20357;-80
2022/06/25 11:43:52;;;;;;;2.65;0.70;;;33.40;39.70;;;;;;5009502;28;20408;-80
2022/06/25 11:46:19;;;;;;;1.48;0.80;;;33.50;39.90;;;;;;5020767;28;20044;-79
2022/06/25 11:48:48;;;;;;;0.60;0.60;;;33.60;39.70;;;;;;4989272;28;20077;-80
2022/06/25 11:51:14;;;;;;;2.38;0.75;;;33.70;39.50;;;;;;4990595;28;20052;-82
2022/06/25 11:53:41;;;;;;;1.27;0.68;;;33.80;39.30;;;;;;4993976;28;20080;-80
2022/06/25 11:56:06;;;;;;;1.38;0.90;;;34.00;39.20;;;;;;5009333;28;20045;-80
2022/06/25 11:58:33;;;;;;;4.93;0.80;;;34.00;38.60;;;;;;5037550;28;20128;-81
2022/06/25 12:00:59;;;;;;;0.85;0.70;;;34.20;38.60;;;;;;5023185;28;20324;-81
2022/06/25 12:03:26;;;;;;;1.27;0.82;;;34.30;38.60;;;;;;5022921;28;20036;-81
2022/06/25 12:05:52;;;;;;;1.10;0.90;;;34.40;38.50;;;;;;5014666;28;20388;-79
2022/06/25 12:08:18;;;;;;;2.72;0.60;;;34.60;38.40;;;;;;4993660;28;20044;-81
2022/06/25 12:10:45;;;;;;;1.95;0.80;;;34.60;38.20;;;;;;5015875;28;20038;-78
2022/06/25 12:13:15;;;;;;;2.60;0.85;;;34.50;38.10;;;;;;5004162;28;20075;-80
2022/06/25 12:15:41;;;;;;;1.40;0.50;;;34.40;37.60;;;;;;4988003;28;20048;-79
2022/06/25 12:18:07;;;;;;;1.80;0.70;;;34.40;37.60;;;;;;4983097;28;20041;-80
2022/06/25 12:20:32;;;;;;;3.20;0.70;;;34.50;37.60;;;;;;5033544;28;20646;-80
2022/06/25 12:22:58;;;;;;;1.15;0.80;;;34.60;37.50;;;;;;5002255;28;20060;-79
2022/06/25 12:25:27;;;;;;;1.42;0.70;;;34.60;37.10;;;;;;5012797;28;20579;-80
2022/06/25 12:27:53;;;;;;;2.90;0.90;;;34.50;36.70;;;;;;5005649;28;20065;-80
2022/06/25 12:30:26;;;;;;;1.10;0.63;;;34.30;36.70;;;;;;5010168;28;20049;-79
2022/06/25 12:32:53;;;;;;;1.08;0.70;;;34.30;36.80;;;;;;4973454;28;20038;-80
2022/06/25 12:35:25;;;;;;;0.95;0.60;;;34.40;37.20;;;;;;4998068;28;20180;-80
2022/06/25 12:38:02;;;;;;;0.90;0.60;;;34.50;37.60;;;;;;4998147;28;20037;-81
2022/06/25 12:40:28;;;;;;;1.65;0.80;;;34.70;37.10;;;;;;5012409;28;20065;-79
2022/06/25 12:42:57;;;;;;;1.48;0.55;;;34.80;37.20;;;;;;4995829;28;20302;-80
2022/06/25 12:45:23;;;;;;;4.00;0.77;;;34.80;36.80;;;;;;4969263;28;20037;-79
2022/06/25 12:47:48;;;;;;;3.47;0.95;;;34.70;36.80;;;;;;5007026;28;20037;-79
2022/06/25 12:50:29;;;;;;;2.53;0.88;;;34.70;36.70;;;;;;5004248;28;20129;-80
2022/06/25 12:52:55;;;;;;;1.25;0.70;;;34.60;36.40;;;;;;4995399;28;20041;-79
2022/06/25 12:55:24;;;;;;;3.78;0.77;;;34.50;36.80;;;;;;4978686;28;20038;-79
2022/06/25 12:57:50;;;;;;;1.90;0.80;;;34.30;37.40;;;;;;5004523;28;20036;-79
2022/06/25 13:00:18;;;;;;;1.67;0.73;;;34.30;36.80;;;;;;4997938;28;20334;-81
2022/06/25 13:02:43;;;;;;;1.92;0.73;;;34.20;36.70;;;;;;5028556;28;20038;-80
2022/06/25 13:05:09;;;;;;;0.98;0.70;;;34.30;37.10;;;;;;5000985;28;20255;-79